Zelenograd, Russia
Current Conditions -  °F | °C
As of 2:00 AM on Sunday 21 Dec 2014 (Local Time) from UUEE Reporting Station
Overcast Overcast  
Wind Chill: 27°   Ceiling: 1100
Heat Index: 34°   Visibility: 6mi
Dew Point: 32°   Wind: 9mph
Humidity: 93%   Direction: 210°SSW
Pressure: 29.41"   Gusts: NA
Location:  55.94°N, 37.29°E
Report Text: UUEE 202300Z 21004MPS 9999 OVC011 01/00 Q0996 25290051 NOSIG
Loading
Personal Weather Stations






























Interactive Weather Map New forecast layout! Learn more

10-Day Weather Forecast

Advertisements
Track Severe Weather on mobile